createdAt,value
2018-09-02T00:01:45.981Z,13.90
2018-09-02T00:04:50.176Z,13.90
2018-09-02T00:07:54.409Z,13.90
2018-09-02T00:10:58.629Z,13.90
2018-09-02T00:14:02.829Z,13.90
2018-09-02T00:17:07.040Z,13.80
2018-09-02T00:20:11.233Z,13.80
2018-09-02T00:23:15.480Z,13.80
2018-09-02T00:26:19.704Z,13.70
2018-09-02T00:29:23.892Z,13.70
2018-09-02T00:32:28.116Z,13.70
2018-09-02T00:35:32.338Z,13.60
2018-09-02T00:38:36.577Z,13.50
2018-09-02T00:41:40.942Z,13.50
2018-09-02T00:44:45.176Z,13.50
2018-09-02T00:47:49.374Z,13.50
2018-09-02T00:50:53.597Z,13.50
2018-09-02T00:53:57.780Z,13.50
2018-09-02T00:57:02.022Z,13.60
2018-09-02T01:00:06.657Z,13.50
2018-09-02T01:03:10.896Z,13.60
2018-09-02T01:06:15.098Z,13.60
2018-09-02T01:09:19.310Z,13.70
2018-09-02T01:12:23.540Z,13.60
2018-09-02T01:15:27.761Z,13.60
2018-09-02T01:18:31.956Z,13.50
2018-09-02T01:21:36.184Z,13.50
2018-09-02T01:24:40.382Z,13.50
2018-09-02T01:27:44.610Z,13.40
2018-09-02T01:30:48.820Z,13.40
2018-09-02T01:33:53.040Z,13.40
2018-09-02T01:36:57.250Z,13.40
2018-09-02T01:40:01.472Z,13.40
2018-09-02T01:43:05.857Z,13.40
2018-09-02T01:46:10.074Z,13.40
2018-09-02T01:49:14.281Z,13.30
2018-09-02T01:52:18.505Z,13.30
2018-09-02T01:55:22.750Z,13.20
2018-09-02T01:58:27.005Z,13.10
2018-09-02T02:01:31.213Z,13.10
2018-09-02T02:04:41.343Z,13.00
2018-09-02T02:07:45.529Z,13.00
2018-09-02T02:10:49.767Z,12.90
2018-09-02T02:13:53.996Z,12.80
2018-09-02T02:16:58.246Z,12.70
2018-09-02T02:20:02.445Z,12.60
2018-09-02T02:23:06.665Z,12.60
2018-09-02T02:26:10.869Z,12.60
2018-09-02T02:29:15.105Z,12.50
2018-09-02T02:32:19.310Z,12.50
2018-09-02T02:35:23.540Z,12.50
2018-09-02T02:38:27.753Z,12.50
2018-09-02T02:41:31.965Z,12.40
2018-09-02T02:44:36.161Z,12.40
2018-09-02T02:47:40.388Z,12.40
2018-09-02T02:50:44.593Z,12.30
2018-09-02T02:53:48.805Z,12.20
2018-09-02T02:56:53.053Z,12.20
2018-09-02T02:59:57.264Z,12.20
2018-09-02T03:03:01.518Z,12.10
2018-09-02T03:06:05.892Z,12.10
2018-09-02T03:09:11.340Z,12.00
2018-09-02T03:12:15.558Z,12.00
2018-09-02T03:15:19.849Z,12.00
2018-09-02T03:18:24.072Z,12.00
2018-09-02T03:21:28.301Z,12.00
2018-09-02T03:24:32.509Z,11.90
2018-09-02T03:27:36.781Z,11.90
2018-09-02T03:30:41.009Z,11.90
2018-09-02T03:33:45.216Z,11.80
2018-09-02T03:36:49.421Z,11.90
2018-09-02T03:39:53.689Z,11.80
2018-09-02T03:42:57.957Z,11.80
2018-09-02T03:46:02.173Z,11.70
2018-09-02T03:49:06.416Z,11.70
2018-09-02T03:52:10.616Z,11.70
2018-09-02T03:55:14.865Z,11.60
2018-09-02T03:58:19.066Z,11.60
2018-09-02T04:01:23.285Z,11.50
2018-09-02T04:04:27.770Z,11.50
2018-09-02T04:07:32.003Z,11.50
2018-09-02T04:10:36.205Z,11.40
2018-09-02T04:13:40.412Z,11.40
2018-09-02T04:16:44.620Z,11.40
2018-09-02T04:19:48.836Z,11.40
2018-09-02T04:22:53.037Z,11.30
2018-09-02T04:25:57.269Z,11.30
2018-09-02T04:29:01.494Z,11.20
2018-09-02T04:32:05.877Z,11.20
2018-09-02T04:35:10.079Z,11.20
2018-09-02T04:38:14.272Z,11.10
2018-09-02T04:41:18.506Z,11.10
2018-09-02T04:44:22.704Z,11.10
2018-09-02T04:47:26.923Z,11.10
2018-09-02T04:50:31.125Z,11.10
2018-09-02T04:53:35.409Z,11.10
2018-09-02T04:56:39.612Z,11.10
2018-09-02T04:59:43.833Z,11.10
2018-09-02T05:02:48.050Z,11.10
2018-09-02T05:05:52.273Z,11.10
2018-09-02T05:08:56.469Z,11.10
2018-09-02T05:12:00.681Z,11.10
2018-09-02T05:15:04.888Z,11.10
2018-09-02T05:18:09.221Z,11.10
2018-09-02T05:21:13.414Z,11.10
2018-09-02T05:24:17.654Z,11.20
2018-09-02T05:27:22.166Z,11.20
2018-09-02T05:30:26.366Z,11.20
2018-09-02T05:33:30.570Z,11.20
2018-09-02T05:36:36.082Z,11.20
2018-09-02T05:39:40.297Z,11.30
2018-09-02T05:42:44.508Z,11.30
2018-09-02T05:45:48.696Z,11.30
2018-09-02T05:48:53.290Z,11.40
2018-09-02T05:51:57.498Z,11.50
2018-09-02T05:55:01.685Z,11.60
2018-09-02T05:58:05.928Z,11.70
2018-09-02T06:01:10.161Z,11.80
2018-09-02T06:04:14.359Z,11.90
2018-09-02T06:07:18.589Z,12.00
2018-09-02T06:10:22.986Z,12.10
2018-09-02T06:13:27.204Z,12.20
2018-09-02T06:16:31.400Z,12.30
2018-09-02T06:19:35.630Z,12.50
2018-09-02T06:22:39.839Z,12.70
2018-09-02T06:25:44.032Z,12.80
2018-09-02T06:28:48.240Z,12.90
2018-09-02T06:31:52.473Z,13.10
2018-09-02T06:34:56.736Z,13.30
2018-09-02T06:38:00.966Z,13.40
2018-09-02T06:41:05.180Z,13.60
2018-09-02T06:44:09.896Z,13.70
2018-09-02T06:47:15.630Z,13.80
2018-09-02T06:50:21.497Z,14.00
2018-09-02T06:53:25.737Z,14.10
2018-09-02T06:56:30.714Z,14.10
2018-09-02T06:59:35.173Z,14.30
2018-09-02T07:02:39.413Z,14.40
2018-09-02T07:05:43.673Z,14.60
2018-09-02T07:08:47.938Z,14.70
2018-09-02T07:11:52.165Z,14.90
2018-09-02T07:14:56.378Z,15.10
2018-09-02T07:18:00.641Z,15.30
2018-09-02T07:21:04.880Z,15.50
2018-09-02T07:24:09.221Z,15.60
2018-09-02T07:27:13.432Z,15.70
2018-09-02T07:30:17.688Z,15.90
2018-09-02T07:33:21.895Z,16.00
2018-09-02T07:36:26.106Z,16.20
2018-09-02T07:39:30.333Z,16.30
2018-09-02T07:42:34.607Z,16.40
2018-09-02T07:45:38.806Z,16.60
2018-09-02T07:48:43.058Z,16.80
2018-09-02T07:51:47.285Z,17.00
2018-09-02T07:54:51.547Z,17.20
2018-09-02T07:57:55.810Z,17.40
2018-09-02T08:01:00.053Z,17.50
2018-09-02T08:04:04.310Z,17.70
2018-09-02T08:07:08.589Z,17.80
2018-09-02T08:10:12.885Z,17.90
2018-09-02T08:13:17.626Z,18.00
2018-09-02T08:16:21.857Z,18.10
2018-09-02T08:19:26.070Z,18.30
2018-09-02T08:22:31.105Z,18.50
2018-09-02T08:25:35.312Z,18.60
2018-09-02T08:28:39.542Z,18.70
2018-09-02T08:31:43.750Z,18.80
2018-09-02T08:34:47.993Z,19.00
2018-09-02T08:37:52.214Z,19.10
2018-09-02T08:40:56.437Z,19.20
2018-09-02T08:44:00.624Z,19.30
2018-09-02T08:47:04.925Z,19.50
2018-09-02T08:50:09.140Z,19.70
2018-09-02T08:53:13.352Z,19.80
2018-09-02T08:56:17.565Z,19.70
2018-09-02T08:59:21.789Z,19.70
2018-09-02T09:02:26.026Z,19.60
2018-09-02T09:05:30.301Z,19.70
2018-09-02T09:08:34.556Z,19.80
2018-09-02T09:11:38.704Z,19.80
2018-09-02T09:14:42.993Z,19.70
2018-09-02T09:17:47.221Z,19.60
2018-09-02T09:20:51.413Z,19.60
2018-09-02T09:23:55.767Z,19.50
2018-09-02T09:26:59.911Z,19.50
2018-09-02T09:30:04.173Z,19.60
2018-09-02T09:33:08.620Z,19.60
2018-09-02T09:36:12.864Z,19.50
2018-09-02T09:39:17.057Z,19.40
2018-09-02T09:42:21.264Z,19.30
2018-09-02T09:45:25.496Z,19.30
2018-09-02T09:48:29.716Z,19.20
2018-09-02T09:51:33.905Z,19.10
2018-09-02T09:54:38.174Z,19.10
2018-09-02T09:57:42.404Z,19.10
2018-09-02T10:00:50.757Z,19.10
2018-09-02T10:03:54.984Z,19.10
2018-09-02T10:06:59.196Z,19.20
2018-09-02T10:10:03.389Z,19.10
2018-09-02T10:13:07.584Z,19.20
2018-09-02T10:16:12.661Z,19.10
2018-09-02T10:19:16.861Z,19.20
2018-09-02T10:22:21.077Z,19.20
2018-09-02T10:25:25.333Z,19.20
2018-09-02T10:28:29.613Z,19.40
2018-09-02T10:31:33.889Z,19.60
2018-09-02T10:34:38.166Z,19.70
2018-09-02T10:37:42.701Z,19.70
2018-09-02T10:40:47.039Z,19.80
2018-09-02T10:43:51.452Z,19.90
2018-09-02T10:46:55.713Z,19.80
2018-09-02T10:49:59.976Z,19.80
2018-09-02T10:53:04.322Z,19.90
2018-09-02T10:56:08.601Z,19.90
2018-09-02T10:59:13.190Z,19.80
2018-09-02T11:02:17.803Z,19.90
2018-09-02T11:05:22.249Z,20.00
2018-09-02T11:08:27.192Z,20.20
2018-09-02T11:11:31.867Z,20.20
2018-09-02T11:14:36.076Z,20.40
2018-09-02T11:17:40.583Z,20.50
2018-09-02T11:20:44.828Z,20.60
2018-09-02T11:23:49.170Z,20.60
2018-09-02T11:26:53.482Z,20.60
2018-09-02T11:29:57.725Z,20.70
2018-09-02T11:33:02.036Z,20.70
2018-09-02T11:36:06.881Z,20.70
2018-09-02T11:39:11.674Z,20.60
2018-09-02T11:42:16.026Z,20.60
2018-09-02T11:45:20.667Z,20.70
2018-09-02T11:48:25.740Z,20.80
2018-09-02T11:51:30.146Z,20.90
2018-09-02T11:54:34.978Z,21.00
2018-09-02T11:57:39.785Z,21.00
2018-09-02T12:00:44.544Z,21.10
2018-09-02T12:03:48.960Z,21.00
2018-09-02T12:06:53.553Z,20.90
2018-09-02T12:10:14.990Z,20.80
2018-09-02T12:13:22.526Z,20.80
2018-09-02T12:16:58.897Z,20.70
2018-09-02T12:20:15.269Z,20.60
2018-09-02T12:23:19.510Z,20.50
2018-09-02T12:26:24.017Z,20.50
2018-09-02T12:29:28.313Z,20.30
2018-09-02T12:32:32.649Z,20.40
2018-09-02T12:35:36.977Z,20.40
2018-09-02T12:38:41.305Z,20.50
2018-09-02T12:41:45.607Z,20.50
2018-09-02T12:44:49.932Z,20.60
2018-09-02T12:47:54.707Z,20.60
2018-09-02T12:50:59.018Z,20.70
2018-09-02T12:54:03.384Z,20.80
2018-09-02T12:57:09.847Z,20.90
2018-09-02T13:00:14.749Z,20.80
2018-09-02T13:03:19.179Z,20.80
2018-09-02T13:06:24.090Z,20.70
2018-09-02T13:09:29.351Z,20.60
2018-09-02T13:16:25.809Z,20.70
2018-09-02T13:19:30.102Z,20.60
2018-09-02T13:22:34.349Z,20.70
2018-09-02T13:25:38.878Z,20.70
2018-09-02T13:28:43.141Z,20.80
2018-09-02T13:31:47.639Z,20.80
2018-09-02T13:34:52.080Z,20.90
2018-09-02T13:37:56.393Z,20.90
2018-09-02T13:41:00.670Z,20.90
2018-09-02T13:44:05.108Z,20.80
2018-09-02T13:47:09.521Z,20.70
2018-09-02T13:50:13.867Z,20.80
2018-09-02T13:53:18.175Z,20.90
2018-09-02T13:56:22.577Z,21.00
2018-09-02T13:59:26.977Z,21.00
2018-09-02T14:02:31.243Z,21.00
2018-09-02T14:05:35.581Z,21.10
2018-09-02T14:08:39.893Z,21.10
2018-09-02T14:11:44.219Z,21.10
2018-09-02T14:14:49.126Z,21.20
2018-09-02T14:17:53.597Z,21.20
2018-09-02T14:20:58.022Z,21.20
2018-09-02T14:24:02.357Z,21.20
2018-09-02T14:27:06.719Z,21.20
2018-09-02T14:30:11.005Z,21.30
2018-09-02T14:33:15.389Z,21.40
2018-09-02T14:36:19.706Z,21.40
2018-09-02T14:39:24.046Z,21.30
2018-09-02T14:42:28.493Z,21.20
2018-09-02T14:45:32.832Z,21.00
2018-09-02T14:48:37.330Z,21.10
2018-09-02T14:51:41.692Z,21.00
2018-09-02T14:54:46.117Z,21.10
2018-09-02T14:57:50.394Z,21.20
2018-09-02T15:00:54.684Z,21.30
2018-09-02T15:03:59.062Z,21.30
2018-09-02T15:07:03.414Z,21.40
2018-09-02T15:10:07.894Z,21.50
2018-09-02T15:13:12.210Z,21.60
2018-09-02T15:16:16.501Z,21.70
2018-09-02T15:19:20.812Z,21.70
2018-09-02T15:22:25.105Z,21.50
2018-09-02T15:25:29.461Z,21.40
2018-09-02T15:28:33.807Z,21.30
2018-09-02T15:31:38.096Z,21.20
2018-09-02T15:34:42.505Z,21.20
2018-09-02T15:37:46.804Z,21.20
2018-09-02T15:40:51.269Z,21.20
2018-09-02T15:43:55.750Z,21.10
2018-09-02T15:47:00.193Z,21.10
2018-09-02T15:50:04.762Z,21.50
2018-09-02T15:53:09.180Z,21.40
2018-09-02T15:56:13.640Z,21.40
2018-09-02T15:59:17.941Z,21.20
2018-09-02T16:02:22.242Z,21.10
2018-09-02T16:05:26.596Z,21.50
2018-09-02T16:08:31.079Z,22.10
2018-09-02T16:11:35.503Z,22.50
2018-09-02T16:14:39.950Z,22.90
2018-09-02T16:17:44.268Z,23.10
2018-09-02T16:20:48.700Z,23.30
2018-09-02T16:23:53.024Z,23.30
2018-09-02T16:26:57.392Z,23.00
2018-09-02T16:30:01.704Z,22.50
2018-09-02T16:33:06.119Z,22.10
2018-09-02T16:36:10.526Z,21.70
2018-09-02T16:39:25.858Z,21.40
2018-09-02T16:42:30.863Z,21.10
2018-09-02T16:45:35.208Z,20.90
2018-09-02T16:48:39.440Z,20.80
2018-09-02T16:51:43.694Z,20.70
2018-09-02T16:54:47.926Z,20.70
2018-09-02T16:57:52.235Z,20.60
2018-09-02T17:00:56.504Z,20.50
2018-09-02T17:04:03.585Z,20.50
2018-09-02T17:07:07.889Z,20.40
2018-09-02T17:10:12.111Z,20.20
2018-09-02T17:13:17.036Z,20.10
2018-09-02T17:16:21.297Z,20.00
2018-09-02T17:19:28.692Z,19.90
2018-09-02T17:22:33.025Z,19.80
2018-09-02T17:25:37.271Z,19.70
2018-09-02T17:28:41.534Z,19.70
2018-09-02T17:31:45.755Z,19.60
2018-09-02T17:34:50.102Z,19.60
2018-09-02T17:37:54.398Z,19.50
2018-09-02T17:40:58.665Z,19.40
2018-09-02T17:44:02.933Z,19.40
2018-09-02T17:47:07.224Z,19.30
2018-09-02T17:50:11.548Z,19.30
2018-09-02T17:53:15.876Z,19.30
2018-09-02T17:56:20.457Z,19.10
2018-09-02T17:59:24.709Z,19.10
2018-09-02T18:02:29.134Z,19.00
2018-09-02T18:05:33.336Z,19.00
2018-09-02T18:08:37.657Z,18.90
2018-09-02T18:11:42.046Z,18.90
2018-09-02T18:14:46.277Z,18.80
2018-09-02T18:17:50.581Z,18.70
2018-09-02T18:20:54.938Z,18.70
2018-09-02T18:23:59.349Z,18.70
2018-09-02T18:27:03.809Z,18.60
2018-09-02T18:30:08.269Z,18.50
2018-09-02T18:33:12.802Z,18.50
2018-09-02T18:36:17.254Z,18.50
2018-09-02T18:39:21.730Z,18.40
2018-09-02T18:42:26.241Z,18.40
2018-09-02T18:45:30.687Z,18.40
2018-09-02T18:48:34.971Z,18.30
2018-09-02T18:51:39.951Z,18.20
2018-09-02T18:54:44.326Z,18.10
2018-09-02T18:57:48.828Z,18.10
2018-09-02T19:02:01.186Z,18.00
2018-09-02T19:05:05.570Z,18.00
2018-09-02T19:08:09.821Z,17.90
2018-09-02T19:11:14.098Z,17.90
2018-09-02T19:14:18.406Z,17.80
2018-09-02T19:17:22.745Z,17.80
2018-09-02T19:20:27.080Z,17.70
2018-09-02T19:23:31.466Z,17.70
2018-09-02T19:26:35.816Z,17.70
2018-09-02T19:29:40.218Z,17.60
2018-09-02T19:32:44.515Z,17.60
2018-09-02T19:35:48.985Z,17.60
2018-09-02T19:38:53.313Z,17.50
2018-09-02T19:41:57.676Z,17.50
2018-09-02T19:45:01.933Z,17.40
2018-09-02T19:48:06.293Z,17.40
2018-09-02T19:51:10.570Z,17.40
2018-09-02T19:54:14.825Z,17.40
2018-09-02T19:57:19.131Z,17.40
2018-09-02T20:00:24.360Z,17.30
2018-09-02T20:03:37.705Z,17.30
2018-09-02T20:06:42.021Z,17.20
2018-09-02T20:09:46.354Z,17.20
2018-09-02T20:12:50.774Z,17.20
2018-09-02T20:15:55.084Z,17.20
2018-09-02T20:18:59.526Z,17.10
2018-09-02T20:22:03.762Z,17.10
2018-09-02T20:25:08.055Z,17.10
2018-09-02T20:28:12.377Z,17.10
2018-09-02T20:31:16.766Z,17.00
2018-09-02T20:34:21.130Z,17.10
2018-09-02T20:37:25.433Z,17.00
2018-09-02T20:40:29.721Z,17.00
2018-09-02T20:43:34.037Z,17.10
2018-09-02T20:46:38.314Z,17.00
2018-09-02T20:49:42.588Z,16.90
2018-09-02T20:52:46.872Z,16.90
2018-09-02T20:55:51.199Z,16.90
2018-09-02T20:58:55.496Z,16.80
2018-09-02T21:01:59.899Z,16.80
2018-09-02T21:05:04.269Z,16.80
2018-09-02T21:08:08.457Z,16.70
2018-09-02T21:11:12.749Z,16.70
2018-09-02T21:14:17.062Z,16.70
2018-09-02T21:17:21.321Z,16.70
2018-09-02T21:20:25.555Z,16.70
2018-09-02T21:23:29.789Z,16.60
2018-09-02T21:26:33.996Z,16.60
2018-09-02T21:29:38.265Z,16.60
2018-09-02T21:32:42.477Z,16.60
2018-09-02T21:35:46.734Z,16.60
2018-09-02T21:38:50.987Z,16.60
2018-09-02T21:41:55.201Z,16.60
2018-09-02T21:44:59.424Z,16.50
2018-09-02T21:48:03.669Z,16.50
2018-09-02T21:51:07.900Z,16.50
2018-09-02T21:54:12.127Z,16.50
2018-09-02T21:57:16.332Z,16.60
2018-09-02T22:00:20.561Z,16.60
2018-09-02T22:03:24.797Z,16.60
2018-09-02T22:06:29.047Z,16.60
2018-09-02T22:09:33.782Z,16.70
2018-09-02T22:12:38.004Z,16.70
2018-09-02T22:15:42.232Z,16.80
2018-09-02T22:18:46.488Z,16.80
2018-09-02T22:21:50.721Z,16.80
2018-09-02T22:24:55.038Z,16.90
2018-09-02T22:27:59.269Z,16.90
2018-09-02T22:31:03.524Z,16.90
2018-09-02T22:34:07.729Z,16.90
2018-09-02T22:37:12.001Z,16.90
2018-09-02T22:40:16.225Z,16.80
2018-09-02T22:43:20.589Z,16.80
2018-09-02T22:46:24.853Z,16.80
2018-09-02T22:49:29.080Z,16.70
2018-09-02T22:52:33.315Z,16.70
2018-09-02T22:55:37.545Z,16.70
2018-09-02T22:58:41.800Z,16.70
2018-09-02T23:01:46.050Z,16.70
2018-09-02T23:04:50.311Z,16.60
2018-09-02T23:07:54.532Z,16.60
2018-09-02T23:10:58.822Z,16.60
2018-09-02T23:14:03.074Z,16.60
2018-09-02T23:17:07.313Z,16.70
2018-09-02T23:20:11.517Z,16.70
2018-09-02T23:23:15.748Z,16.70
2018-09-02T23:26:20.013Z,16.70
2018-09-02T23:29:24.296Z,16.70
2018-09-02T23:32:28.554Z,16.70
2018-09-02T23:35:32.813Z,16.70
2018-09-02T23:38:37.092Z,16.70
2018-09-02T23:41:41.422Z,16.80
2018-09-02T23:44:45.671Z,16.80
2018-09-02T23:47:49.952Z,16.80
2018-09-02T23:50:54.241Z,16.80
2018-09-02T23:53:58.598Z,16.70
2018-09-02T23:57:02.820Z,16.80
